sensor_id;sensor_type;location;lat;lon;timestamp;temperature;humidity
2723;DHT22;1369;53.216;10.396;2024-02-21T00:00:15;9.20;99.90
2723;DHT22;1369;53.216;10.396;2024-02-21T00:02:41;9.20;99.90
2723;DHT22;1369;53.216;10.396;2024-02-21T00:05:06;9.10;99.90
2723;DHT22;1369;53.216;10.396;2024-02-21T00:07:32;9.20;99.90
2723;DHT22;1369;53.216;10.396;2024-02-21T00:09:58;9.20;99.90
2723;DHT22;1369;53.216;10.396;2024-02-21T00:12:23;9.20;99.90
2723;DHT22;1369;53.216;10.396;2024-02-21T00:14:49;9.20;99.90
2723;DHT22;1369;53.216;10.396;2024-02-21T00:17:14;9.20;99.90
2723;DHT22;1369;53.216;10.396;2024-02-21T00:19:40;9.20;99.90
2723;DHT22;1369;53.216;10.396;2024-02-21T00:22:05;9.20;99.90
2723;DHT22;1369;53.216;10.396;2024-02-21T00:24:31;9.20;99.90
2723;DHT22;1369;53.216;10.396;2024-02-21T00:26:56;9.20;99.90
2723;DHT22;1369;53.216;10.396;2024-02-21T00:29:22;9.20;99.90
2723;DHT22;1369;53.216;10.396;2024-02-21T00:31:49;9.20;99.90
2723;DHT22;1369;53.216;10.396;2024-02-21T00:34:14;9.20;99.90
2723;DHT22;1369;53.216;10.396;2024-02-21T00:36:40;9.20;99.90
2723;DHT22;1369;53.216;10.396;2024-02-21T00:39:06;9.20;99.90
2723;DHT22;1369;53.216;10.396;2024-02-21T00:41:31;9.20;99.90
2723;DHT22;1369;53.216;10.396;2024-02-21T00:43:57;9.30;99.90
2723;DHT22;1369;53.216;10.396;2024-02-21T00:46:23;9.20;99.90
2723;DHT22;1369;53.216;10.396;2024-02-21T00:48:48;9.30;99.90
2723;DHT22;1369;53.216;10.396;2024-02-21T00:51:15;9.30;99.90
2723;DHT22;1369;53.216;10.396;2024-02-21T00:53:41;9.20;99.90
2723;DHT22;1369;53.216;10.396;2024-02-21T00:56:07;9.30;99.90
2723;DHT22;1369;53.216;10.396;2024-02-21T00:58:32;9.30;99.90
2723;DHT22;1369;53.216;10.396;2024-02-21T01:00:58;9.20;99.90
2723;DHT22;1369;53.216;10.396;2024-02-21T01:03:24;9.20;99.90
2723;DHT22;1369;53.216;10.396;2024-02-21T01:05:49;9.10;99.90
2723;DHT22;1369;53.216;10.396;2024-02-21T01:08:15;9.20;99.90
2723;DHT22;1369;53.216;10.396;2024-02-21T01:10:40;9.20;99.90
2723;DHT22;1369;53.216;10.396;2024-02-21T01:13:06;9.20;99.90
2723;DHT22;1369;53.216;10.396;2024-02-21T01:15:32;9.20;99.90
2723;DHT22;1369;53.216;10.396;2024-02-21T01:17:58;9.20;99.90
2723;DHT22;1369;53.216;10.396;2024-02-21T01:20:24;9.20;99.90
2723;DHT22;1369;53.216;10.396;2024-02-21T01:22:49;9.20;99.90
2723;DHT22;1369;53.216;10.396;2024-02-21T01:25:15;9.20;99.90
2723;DHT22;1369;53.216;10.396;2024-02-21T01:27:41;9.20;99.90
2723;DHT22;1369;53.216;10.396;2024-02-21T01:30:07;9.20;99.90
2723;DHT22;1369;53.216;10.396;2024-02-21T01:32:33;9.20;99.90
2723;DHT22;1369;53.216;10.396;2024-02-21T01:34:59;9.20;99.90
2723;DHT22;1369;53.216;10.396;2024-02-21T01:37:24;9.20;99.90
2723;DHT22;1369;53.216;10.396;2024-02-21T01:39:50;9.30;99.90
2723;DHT22;1369;53.216;10.396;2024-02-21T01:42:16;9.20;99.90
2723;DHT22;1369;53.216;10.396;2024-02-21T01:44:41;9.20;99.90
2723;DHT22;1369;53.216;10.396;2024-02-21T01:47:07;9.30;99.90
2723;DHT22;1369;53.216;10.396;2024-02-21T01:49:33;9.30;99.90
2723;DHT22;1369;53.216;10.396;2024-02-21T01:51:59;9.30;99.90
2723;DHT22;1369;53.216;10.396;2024-02-21T01:54:25;9.30;99.90
2723;DHT22;1369;53.216;10.396;2024-02-21T01:56:54;9.30;99.90
2723;DHT22;1369;53.216;10.396;2024-02-21T01:59:21;9.30;99.90
2723;DHT22;1369;53.216;10.396;2024-02-21T02:01:47;9.30;99.90
2723;DHT22;1369;53.216;10.396;2024-02-21T02:04:14;9.30;99.90
2723;DHT22;1369;53.216;10.396;2024-02-21T02:06:40;9.30;99.90
2723;DHT22;1369;53.216;10.396;2024-02-21T02:09:06;9.30;99.90
2723;DHT22;1369;53.216;10.396;2024-02-21T02:11:32;9.30;99.90
2723;DHT22;1369;53.216;10.396;2024-02-21T02:13:58;9.30;99.90
2723;DHT22;1369;53.216;10.396;2024-02-21T02:16:24;9.30;99.90
2723;DHT22;1369;53.216;10.396;2024-02-21T02:18:50;9.20;99.90
2723;DHT22;1369;53.216;10.396;2024-02-21T02:21:26;9.30;99.90
2723;DHT22;1369;53.216;10.396;2024-02-21T02:23:52;9.30;99.90
2723;DHT22;1369;53.216;10.396;2024-02-21T02:26:18;9.30;99.90
2723;DHT22;1369;53.216;10.396;2024-02-21T02:28:43;9.20;99.90
2723;DHT22;1369;53.216;10.396;2024-02-21T02:31:09;9.30;99.90
2723;DHT22;1369;53.216;10.396;2024-02-21T02:33:34;9.20;99.90
2723;DHT22;1369;53.216;10.396;2024-02-21T02:36:00;9.30;99.90
2723;DHT22;1369;53.216;10.396;2024-02-21T02:38:25;9.30;99.90
2723;DHT22;1369;53.216;10.396;2024-02-21T02:40:51;9.20;99.90
2723;DHT22;1369;53.216;10.396;2024-02-21T02:43:16;9.30;99.90
2723;DHT22;1369;53.216;10.396;2024-02-21T02:45:42;9.30;99.90
2723;DHT22;1369;53.216;10.396;2024-02-21T02:48:08;9.30;99.90
2723;DHT22;1369;53.216;10.396;2024-02-21T02:50:33;9.30;99.90
2723;DHT22;1369;53.216;10.396;2024-02-21T02:52:59;9.20;99.90
2723;DHT22;1369;53.216;10.396;2024-02-21T02:55:25;9.30;99.90
2723;DHT22;1369;53.216;10.396;2024-02-21T02:57:51;9.20;99.90
2723;DHT22;1369;53.216;10.396;2024-02-21T03:00:17;9.20;99.90
2723;DHT22;1369;53.216;10.396;2024-02-21T03:02:44;9.30;99.90
2723;DHT22;1369;53.216;10.396;2024-02-21T03:05:13;9.30;99.90
2723;DHT22;1369;53.216;10.396;2024-02-21T03:07:40;9.30;99.90
2723;DHT22;1369;53.216;10.396;2024-02-21T03:10:06;9.30;99.90
2723;DHT22;1369;53.216;10.396;2024-02-21T03:12:31;9.30;99.90
2723;DHT22;1369;53.216;10.396;2024-02-21T03:14:57;9.30;99.90
2723;DHT22;1369;53.216;10.396;2024-02-21T03:17:23;9.30;99.90
2723;DHT22;1369;53.216;10.396;2024-02-21T03:19:50;9.30;99.90
2723;DHT22;1369;53.216;10.396;2024-02-21T03:22:15;9.30;99.90
2723;DHT22;1369;53.216;10.396;2024-02-21T03:24:42;9.30;99.90
2723;DHT22;1369;53.216;10.396;2024-02-21T03:27:07;9.30;99.90
2723;DHT22;1369;53.216;10.396;2024-02-21T03:29:33;9.30;99.90
2723;DHT22;1369;53.216;10.396;2024-02-21T03:31:59;9.40;99.90
2723;DHT22;1369;53.216;10.396;2024-02-21T03:34:25;9.40;99.90
2723;DHT22;1369;53.216;10.396;2024-02-21T03:36:50;9.30;99.90
2723;DHT22;1369;53.216;10.396;2024-02-21T03:39:16;9.30;99.90
2723;DHT22;1369;53.216;10.396;2024-02-21T03:41:41;9.30;99.90
2723;DHT22;1369;53.216;10.396;2024-02-21T03:44:07;9.30;99.90
2723;DHT22;1369;53.216;10.396;2024-02-21T03:46:32;9.40;99.90
2723;DHT22;1369;53.216;10.396;2024-02-21T03:48:58;9.40;99.90
2723;DHT22;1369;53.216;10.396;2024-02-21T03:51:24;9.30;99.90
2723;DHT22;1369;53.216;10.396;2024-02-21T03:53:50;9.40;99.90
2723;DHT22;1369;53.216;10.396;2024-02-21T03:56:15;9.40;99.90
2723;DHT22;1369;53.216;10.396;2024-02-21T03:58:41;9.40;99.90
2723;DHT22;1369;53.216;10.396;2024-02-21T04:01:07;9.30;99.90
2723;DHT22;1369;53.216;10.396;2024-02-21T04:03:32;9.40;99.90
2723;DHT22;1369;53.216;10.396;2024-02-21T04:05:58;9.40;99.90
2723;DHT22;1369;53.216;10.396;2024-02-21T04:08:23;9.40;99.90
2723;DHT22;1369;53.216;10.396;2024-02-21T04:10:49;9.40;99.90
2723;DHT22;1369;53.216;10.396;2024-02-21T04:13:15;9.40;99.90
2723;DHT22;1369;53.216;10.396;2024-02-21T04:15:40;9.40;99.90
2723;DHT22;1369;53.216;10.396;2024-02-21T04:18:06;9.40;99.90
2723;DHT22;1369;53.216;10.396;2024-02-21T04:20:32;9.40;99.90
2723;DHT22;1369;53.216;10.396;2024-02-21T04:22:58;9.40;99.90
2723;DHT22;1369;53.216;10.396;2024-02-21T04:25:24;9.40;99.90
2723;DHT22;1369;53.216;10.396;2024-02-21T04:27:49;9.40;99.90
2723;DHT22;1369;53.216;10.396;2024-02-21T04:30:15;9.40;99.90
2723;DHT22;1369;53.216;10.396;2024-02-21T04:32:41;9.50;99.90
2723;DHT22;1369;53.216;10.396;2024-02-21T04:35:07;9.40;99.90
2723;DHT22;1369;53.216;10.396;2024-02-21T04:37:33;9.40;99.90
2723;DHT22;1369;53.216;10.396;2024-02-21T04:39:58;9.50;99.90
2723;DHT22;1369;53.216;10.396;2024-02-21T04:42:24;9.30;99.90
2723;DHT22;1369;53.216;10.396;2024-02-21T04:44:50;9.40;99.90
2723;DHT22;1369;53.216;10.396;2024-02-21T04:47:15;9.40;99.90
2723;DHT22;1369;53.216;10.396;2024-02-21T04:49:41;9.40;99.90
2723;DHT22;1369;53.216;10.396;2024-02-21T04:52:06;9.40;99.90
2723;DHT22;1369;53.216;10.396;2024-02-21T04:54:32;9.40;99.90
2723;DHT22;1369;53.216;10.396;2024-02-21T04:56:58;9.40;99.90
2723;DHT22;1369;53.216;10.396;2024-02-21T04:59:23;9.30;99.90
2723;DHT22;1369;53.216;10.396;2024-02-21T05:01:49;9.40;99.90
2723;DHT22;1369;53.216;10.396;2024-02-21T05:04:15;9.40;99.90
2723;DHT22;1369;53.216;10.396;2024-02-21T05:06:41;9.30;99.90
2723;DHT22;1369;53.216;10.396;2024-02-21T05:09:08;9.30;99.90
2723;DHT22;1369;53.216;10.396;2024-02-21T05:11:37;9.30;99.90
2723;DHT22;1369;53.216;10.396;2024-02-21T05:14:03;9.30;99.90
2723;DHT22;1369;53.216;10.396;2024-02-21T05:16:30;9.30;99.90
2723;DHT22;1369;53.216;10.396;2024-02-21T05:18:55;9.40;99.90
2723;DHT22;1369;53.216;10.396;2024-02-21T05:21:23;9.40;99.90
2723;DHT22;1369;53.216;10.396;2024-02-21T05:23:49;9.40;99.90
2723;DHT22;1369;53.216;10.396;2024-02-21T05:26:25;9.40;99.90
2723;DHT22;1369;53.216;10.396;2024-02-21T05:28:51;9.40;99.90
2723;DHT22;1369;53.216;10.396;2024-02-21T05:31:20;9.40;99.90
2723;DHT22;1369;53.216;10.396;2024-02-21T05:33:46;9.40;99.90
2723;DHT22;1369;53.216;10.396;2024-02-21T05:36:14;9.30;99.90
2723;DHT22;1369;53.216;10.396;2024-02-21T05:38:39;9.30;99.90
2723;DHT22;1369;53.216;10.396;2024-02-21T05:41:05;9.30;99.90
2723;DHT22;1369;53.216;10.396;2024-02-21T05:43:31;9.30;99.90
2723;DHT22;1369;53.216;10.396;2024-02-21T05:45:57;9.30;99.90
2723;DHT22;1369;53.216;10.396;2024-02-21T05:48:23;9.30;99.90
2723;DHT22;1369;53.216;10.396;2024-02-21T05:50:49;9.30;99.90
2723;DHT22;1369;53.216;10.396;2024-02-21T05:53:15;9.20;99.90
2723;DHT22;1369;53.216;10.396;2024-02-21T05:55:41;9.20;99.90
2723;DHT22;1369;53.216;10.396;2024-02-21T05:58:06;9.20;99.90
2723;DHT22;1369;53.216;10.396;2024-02-21T06:00:33;9.20;99.90
2723;DHT22;1369;53.216;10.396;2024-02-21T06:02:58;9.20;99.90
2723;DHT22;1369;53.216;10.396;2024-02-21T06:05:24;9.20;99.90
2723;DHT22;1369;53.216;10.396;2024-02-21T06:07:50;9.20;99.90
2723;DHT22;1369;53.216;10.396;2024-02-21T06:10:16;9.20;99.90
2723;DHT22;1369;53.216;10.396;2024-02-21T06:12:41;9.20;99.90
2723;DHT22;1369;53.216;10.396;2024-02-21T06:15:07;9.20;99.90
2723;DHT22;1369;53.216;10.396;2024-02-21T06:17:33;9.20;99.90
2723;DHT22;1369;53.216;10.396;2024-02-21T06:19:59;9.20;99.90
2723;DHT22;1369;53.216;10.396;2024-02-21T06:22:24;9.20;99.90
2723;DHT22;1369;53.216;10.396;2024-02-21T06:24:50;9.20;99.90
2723;DHT22;1369;53.216;10.396;2024-02-21T06:27:16;9.20;99.90
2723;DHT22;1369;53.216;10.396;2024-02-21T06:29:42;9.20;99.90
2723;DHT22;1369;53.216;10.396;2024-02-21T06:32:10;9.20;99.90
2723;DHT22;1369;53.216;10.396;2024-02-21T06:34:36;9.20;99.90
2723;DHT22;1369;53.216;10.396;2024-02-21T06:37:01;9.20;99.90
2723;DHT22;1369;53.216;10.396;2024-02-21T06:39:27;9.20;99.90
2723;DHT22;1369;53.216;10.396;2024-02-21T06:41:54;9.20;99.90
2723;DHT22;1369;53.216;10.396;2024-02-21T06:44:21;9.20;99.90
2723;DHT22;1369;53.216;10.396;2024-02-21T06:46:47;9.20;99.90
2723;DHT22;1369;53.216;10.396;2024-02-21T06:49:13;9.20;99.90
2723;DHT22;1369;53.216;10.396;2024-02-21T06:51:44;9.20;99.90
2723;DHT22;1369;53.216;10.396;2024-02-21T06:54:10;9.30;99.90
2723;DHT22;1369;53.216;10.396;2024-02-21T06:56:37;9.30;99.90
2723;DHT22;1369;53.216;10.396;2024-02-21T06:59:03;9.20;99.90
2723;DHT22;1369;53.216;10.396;2024-02-21T07:01:29;9.20;99.90
2723;DHT22;1369;53.216;10.396;2024-02-21T07:03:55;9.30;99.90
2723;DHT22;1369;53.216;10.396;2024-02-21T07:06:21;9.30;99.90
2723;DHT22;1369;53.216;10.396;2024-02-21T07:08:48;9.30;99.90
2723;DHT22;1369;53.216;10.396;2024-02-21T07:11:14;9.30;99.90
2723;DHT22;1369;53.216;10.396;2024-02-21T07:13:39;9.30;99.90
2723;DHT22;1369;53.216;10.396;2024-02-21T07:16:06;9.30;99.90
2723;DHT22;1369;53.216;10.396;2024-02-21T07:18:32;9.40;99.90
2723;DHT22;1369;53.216;10.396;2024-02-21T07:20:58;9.30;99.90
2723;DHT22;1369;53.216;10.396;2024-02-21T07:23:24;9.30;99.90
2723;DHT22;1369;53.216;10.396;2024-02-21T07:25:49;9.30;99.90
2723;DHT22;1369;53.216;10.396;2024-02-21T07:28:15;9.40;99.90
2723;DHT22;1369;53.216;10.396;2024-02-21T07:30:41;9.40;99.90
2723;DHT22;1369;53.216;10.396;2024-02-21T07:33:07;9.40;99.90
2723;DHT22;1369;53.216;10.396;2024-02-21T07:35:33;9.50;99.90
2723;DHT22;1369;53.216;10.396;2024-02-21T07:37:58;9.50;99.90
2723;DHT22;1369;53.216;10.396;2024-02-21T07:40:24;9.50;99.90
2723;DHT22;1369;53.216;10.396;2024-02-21T07:42:50;9.50;99.90
2723;DHT22;1369;53.216;10.396;2024-02-21T07:45:15;9.50;99.90
2723;DHT22;1369;53.216;10.396;2024-02-21T07:47:41;9.60;99.90
2723;DHT22;1369;53.216;10.396;2024-02-21T07:50:07;9.60;99.90
2723;DHT22;1369;53.216;10.396;2024-02-21T07:52:33;9.60;99.90
2723;DHT22;1369;53.216;10.396;2024-02-21T07:54:59;9.60;99.90
2723;DHT22;1369;53.216;10.396;2024-02-21T07:57:24;9.70;99.90
2723;DHT22;1369;53.216;10.396;2024-02-21T07:59:50;9.70;99.90
2723;DHT22;1369;53.216;10.396;2024-02-21T08:02:16;9.70;99.90
2723;DHT22;1369;53.216;10.396;2024-02-21T08:04:42;9.70;99.90
2723;DHT22;1369;53.216;10.396;2024-02-21T08:07:09;9.80;99.90
2723;DHT22;1369;53.216;10.396;2024-02-21T08:09:34;9.90;99.90
2723;DHT22;1369;53.216;10.396;2024-02-21T08:12:00;9.90;99.90
2723;DHT22;1369;53.216;10.396;2024-02-21T08:14:30;10.00;99.90
2723;DHT22;1369;53.216;10.396;2024-02-21T08:16:56;10.00;99.90
2723;DHT22;1369;53.216;10.396;2024-02-21T08:19:26;10.00;99.90
2723;DHT22;1369;53.216;10.396;2024-02-21T08:21:52;10.10;99.90
2723;DHT22;1369;53.216;10.396;2024-02-21T08:24:17;10.20;99.90
2723;DHT22;1369;53.216;10.396;2024-02-21T08:26:44;10.20;99.90
2723;DHT22;1369;53.216;10.396;2024-02-21T08:29:11;10.10;99.90
2723;DHT22;1369;53.216;10.396;2024-02-21T08:31:38;10.20;99.90
2723;DHT22;1369;53.216;10.396;2024-02-21T08:34:09;10.30;99.90
2723;DHT22;1369;53.216;10.396;2024-02-21T08:36:35;10.30;99.90
2723;DHT22;1369;53.216;10.396;2024-02-21T08:39:02;10.30;99.90
2723;DHT22;1369;53.216;10.396;2024-02-21T08:41:32;10.40;99.90
2723;DHT22;1369;53.216;10.396;2024-02-21T08:43:58;10.40;99.90
2723;DHT22;1369;53.216;10.396;2024-02-21T08:46:24;10.50;99.90
2723;DHT22;1369;53.216;10.396;2024-02-21T08:48:53;10.50;99.90
2723;DHT22;1369;53.216;10.396;2024-02-21T08:51:20;10.50;99.90
2723;DHT22;1369;53.216;10.396;2024-02-21T08:53:46;10.60;99.90
2723;DHT22;1369;53.216;10.396;2024-02-21T08:56:12;10.50;99.90
2723;DHT22;1369;53.216;10.396;2024-02-21T08:58:39;10.60;99.90
2723;DHT22;1369;53.216;10.396;2024-02-21T09:01:06;10.60;99.90
2723;DHT22;1369;53.216;10.396;2024-02-21T09:03:38;10.70;99.90
2723;DHT22;1369;53.216;10.396;2024-02-21T09:06:05;10.80;99.90
2723;DHT22;1369;53.216;10.396;2024-02-21T09:08:32;10.80;99.90
2723;DHT22;1369;53.216;10.396;2024-02-21T09:11:01;10.80;99.90
2723;DHT22;1369;53.216;10.396;2024-02-21T09:13:28;10.80;99.90
2723;DHT22;1369;53.216;10.396;2024-02-21T09:15:55;10.80;99.90
2723;DHT22;1369;53.216;10.396;2024-02-21T09:18:21;11.00;99.90
2723;DHT22;1369;53.216;10.396;2024-02-21T09:20:47;11.10;99.90
2723;DHT22;1369;53.216;10.396;2024-02-21T09:23:13;11.30;99.90
2723;DHT22;1369;53.216;10.396;2024-02-21T09:25:39;11.40;99.90
2723;DHT22;1369;53.216;10.396;2024-02-21T09:28:05;11.50;99.90
2723;DHT22;1369;53.216;10.396;2024-02-21T09:30:35;11.50;99.90
2723;DHT22;1369;53.216;10.396;2024-02-21T09:33:00;11.40;99.90
2723;DHT22;1369;53.216;10.396;2024-02-21T09:35:28;11.40;99.90
2723;DHT22;1369;53.216;10.396;2024-02-21T09:37:54;11.40;99.90
2723;DHT22;1369;53.216;10.396;2024-02-21T09:40:20;11.20;99.90
2723;DHT22;1369;53.216;10.396;2024-02-21T09:42:48;11.10;99.90
2723;DHT22;1369;53.216;10.396;2024-02-21T09:45:23;11.00;99.90
2723;DHT22;1369;53.216;10.396;2024-02-21T09:50:43;10.90;99.90
2723;DHT22;1369;53.216;10.396;2024-02-21T09:53:12;10.70;99.90
2723;DHT22;1369;53.216;10.396;2024-02-21T09:55:39;10.60;99.90
2723;DHT22;1369;53.216;10.396;2024-02-21T09:58:07;10.60;99.90
2723;DHT22;1369;53.216;10.396;2024-02-21T10:00:33;10.60;99.90
2723;DHT22;1369;53.216;10.396;2024-02-21T10:02:59;10.50;99.90
2723;DHT22;1369;53.216;10.396;2024-02-21T10:05:25;10.50;99.90
2723;DHT22;1369;53.216;10.396;2024-02-21T10:07:51;10.50;99.90
2723;DHT22;1369;53.216;10.396;2024-02-21T10:10:17;10.50;99.90
2723;DHT22;1369;53.216;10.396;2024-02-21T10:12:53;10.50;99.90
2723;DHT22;1369;53.216;10.396;2024-02-21T10:15:24;10.40;99.90
2723;DHT22;1369;53.216;10.396;2024-02-21T10:17:58;10.40;99.90
2723;DHT22;1369;53.216;10.396;2024-02-21T10:20:24;10.40;99.90
2723;DHT22;1369;53.216;10.396;2024-02-21T10:23:00;10.30;99.90
2723;DHT22;1369;53.216;10.396;2024-02-21T10:25:27;10.40;99.90
2723;DHT22;1369;53.216;10.396;2024-02-21T10:27:52;10.40;99.90
2723;DHT22;1369;53.216;10.396;2024-02-21T10:30:19;10.60;99.90
2723;DHT22;1369;53.216;10.396;2024-02-21T10:32:53;10.70;99.90
2723;DHT22;1369;53.216;10.396;2024-02-21T10:35:32;10.90;99.90
2723;DHT22;1369;53.216;10.396;2024-02-21T10:37:59;10.90;99.90
2723;DHT22;1369;53.216;10.396;2024-02-21T10:40:26;11.00;99.90
2723;DHT22;1369;53.216;10.396;2024-02-21T10:42:59;11.10;99.90
2723;DHT22;1369;53.216;10.396;2024-02-21T10:45:34;11.20;99.90
2723;DHT22;1369;53.216;10.396;2024-02-21T10:48:29;11.10;99.90
2723;DHT22;1369;53.216;10.396;2024-02-21T10:51:03;11.10;99.90
2723;DHT22;1369;53.216;10.396;2024-02-21T10:56:30;11.00;99.90
2723;DHT22;1369;53.216;10.396;2024-02-21T10:59:01;11.10;99.90
2723;DHT22;1369;53.216;10.396;2024-02-21T11:01:28;11.00;99.90
2723;DHT22;1369;53.216;10.396;2024-02-21T11:03:58;11.00;99.90
2723;DHT22;1369;53.216;10.396;2024-02-21T11:06:24;11.00;99.90
2723;DHT22;1369;53.216;10.396;2024-02-21T11:09:11;11.00;99.90
2723;DHT22;1369;53.216;10.396;2024-02-21T11:11:42;11.00;99.90
2723;DHT22;1369;53.216;10.396;2024-02-21T11:14:10;11.00;99.90
2723;DHT22;1369;53.216;10.396;2024-02-21T11:21:38;11.00;99.90
2723;DHT22;1369;53.216;10.396;2024-02-21T11:24:04;10.90;99.90
2723;DHT22;1369;53.216;10.396;2024-02-21T11:26:30;10.90;99.90
2723;DHT22;1369;53.216;10.396;2024-02-21T11:29:01;10.80;99.90
2723;DHT22;1369;53.216;10.396;2024-02-21T11:31:38;10.70;99.90
2723;DHT22;1369;53.216;10.396;2024-02-21T11:34:05;10.70;99.90
2723;DHT22;1369;53.216;10.396;2024-02-21T11:36:30;10.60;99.90
2723;DHT22;1369;53.216;10.396;2024-02-21T11:39:03;10.60;99.90
2723;DHT22;1369;53.216;10.396;2024-02-21T11:41:30;10.60;99.90
2723;DHT22;1369;53.216;10.396;2024-02-21T11:43:55;10.60;99.90
2723;DHT22;1369;53.216;10.396;2024-02-21T11:46:21;10.50;99.90
2723;DHT22;1369;53.216;10.396;2024-02-21T11:48:49;10.50;99.90
2723;DHT22;1369;53.216;10.396;2024-02-21T11:51:26;10.50;99.90
2723;DHT22;1369;53.216;10.396;2024-02-21T11:53:55;10.50;99.90
2723;DHT22;1369;53.216;10.396;2024-02-21T11:56:21;10.50;99.90
2723;DHT22;1369;53.216;10.396;2024-02-21T11:58:48;10.50;99.90
2723;DHT22;1369;53.216;10.396;2024-02-21T12:01:14;10.50;99.90
2723;DHT22;1369;53.216;10.396;2024-02-21T12:03:40;10.50;99.90
2723;DHT22;1369;53.216;10.396;2024-02-21T12:06:07;10.50;99.90
2723;DHT22;1369;53.216;10.396;2024-02-21T12:08:45;10.50;99.90
2723;DHT22;1369;53.216;10.396;2024-02-21T12:11:22;10.50;99.90
2723;DHT22;1369;53.216;10.396;2024-02-21T12:14:01;10.50;99.90
2723;DHT22;1369;53.216;10.396;2024-02-21T12:16:32;10.50;99.90
2723;DHT22;1369;53.216;10.396;2024-02-21T12:18:59;10.60;99.90
2723;DHT22;1369;53.216;10.396;2024-02-21T12:21:26;10.60;99.90
2723;DHT22;1369;53.216;10.396;2024-02-21T12:23:54;10.60;99.90
2723;DHT22;1369;53.216;10.396;2024-02-21T12:26:20;10.60;99.90
2723;DHT22;1369;53.216;10.396;2024-02-21T12:28:46;10.70;99.90
2723;DHT22;1369;53.216;10.396;2024-02-21T12:31:12;10.70;99.90
2723;DHT22;1369;53.216;10.396;2024-02-21T12:33:38;10.80;99.90
2723;DHT22;1369;53.216;10.396;2024-02-21T12:36:04;10.90;99.90
2723;DHT22;1369;53.216;10.396;2024-02-21T12:38:30;10.90;99.90
2723;DHT22;1369;53.216;10.396;2024-02-21T12:40:55;10.90;99.90
2723;DHT22;1369;53.216;10.396;2024-02-21T12:43:23;11.00;99.90
2723;DHT22;1369;53.216;10.396;2024-02-21T12:45:49;11.00;99.90
2723;DHT22;1369;53.216;10.396;2024-02-21T12:48:14;11.10;99.90
2723;DHT22;1369;53.216;10.396;2024-02-21T12:50:50;11.10;99.90
2723;DHT22;1369;53.216;10.396;2024-02-21T12:53:20;11.10;99.90
2723;DHT22;1369;53.216;10.396;2024-02-21T12:55:48;11.10;99.90
2723;DHT22;1369;53.216;10.396;2024-02-21T12:58:14;11.10;99.90
2723;DHT22;1369;53.216;10.396;2024-02-21T13:00:40;11.10;99.90
2723;DHT22;1369;53.216;10.396;2024-02-21T13:03:06;11.10;99.90
2723;DHT22;1369;53.216;10.396;2024-02-21T13:05:32;11.10;99.90
2723;DHT22;1369;53.216;10.396;2024-02-21T13:08:00;11.10;99.90
2723;DHT22;1369;53.216;10.396;2024-02-21T13:10:26;11.10;99.90
2723;DHT22;1369;53.216;10.396;2024-02-21T13:12:51;11.20;99.90
2723;DHT22;1369;53.216;10.396;2024-02-21T13:15:17;11.10;99.90
2723;DHT22;1369;53.216;10.396;2024-02-21T13:17:44;11.10;99.90
2723;DHT22;1369;53.216;10.396;2024-02-21T13:20:10;11.10;99.90
2723;DHT22;1369;53.216;10.396;2024-02-21T13:22:37;11.10;99.90
2723;DHT22;1369;53.216;10.396;2024-02-21T13:25:03;11.10;99.90
2723;DHT22;1369;53.216;10.396;2024-02-21T13:27:29;11.10;99.90
2723;DHT22;1369;53.216;10.396;2024-02-21T13:29:55;11.20;99.90
2723;DHT22;1369;53.216;10.396;2024-02-21T13:32:20;11.20;99.90
2723;DHT22;1369;53.216;10.396;2024-02-21T13:34:46;11.30;99.90
2723;DHT22;1369;53.216;10.396;2024-02-21T13:37:12;11.30;99.90
2723;DHT22;1369;53.216;10.396;2024-02-21T13:39:39;11.40;99.90
2723;DHT22;1369;53.216;10.396;2024-02-21T13:42:05;11.30;99.90
2723;DHT22;1369;53.216;10.396;2024-02-21T13:44:34;11.30;99.90
2723;DHT22;1369;53.216;10.396;2024-02-21T13:47:00;11.30;99.90
2723;DHT22;1369;53.216;10.396;2024-02-21T13:49:26;11.30;99.90
2723;DHT22;1369;53.216;10.396;2024-02-21T13:51:51;11.30;99.90
2723;DHT22;1369;53.216;10.396;2024-02-21T13:54:17;11.30;99.90
2723;DHT22;1369;53.216;10.396;2024-02-21T13:56:45;11.30;99.90
2723;DHT22;1369;53.216;10.396;2024-02-21T13:59:12;11.30;99.90
2723;DHT22;1369;53.216;10.396;2024-02-21T14:01:39;11.30;99.90
2723;DHT22;1369;53.216;10.396;2024-02-21T14:04:04;11.40;99.90
2723;DHT22;1369;53.216;10.396;2024-02-21T14:06:30;11.40;99.90
2723;DHT22;1369;53.216;10.396;2024-02-21T14:08:55;11.50;99.90
2723;DHT22;1369;53.216;10.396;2024-02-21T14:11:21;11.50;99.90
2723;DHT22;1369;53.216;10.396;2024-02-21T14:13:47;11.40;99.90
2723;DHT22;1369;53.216;10.396;2024-02-21T14:16:12;11.50;99.90
2723;DHT22;1369;53.216;10.396;2024-02-21T14:18:39;11.50;99.90
2723;DHT22;1369;53.216;10.396;2024-02-21T14:21:08;11.50;99.90
2723;DHT22;1369;53.216;10.396;2024-02-21T14:23:39;11.50;99.90
2723;DHT22;1369;53.216;10.396;2024-02-21T14:26:05;11.50;99.90
2723;DHT22;1369;53.216;10.396;2024-02-21T14:28:32;11.50;99.90
2723;DHT22;1369;53.216;10.396;2024-02-21T14:30:59;11.50;99.90
2723;DHT22;1369;53.216;10.396;2024-02-21T14:33:28;11.50;99.90
2723;DHT22;1369;53.216;10.396;2024-02-21T14:35:54;11.50;99.90
2723;DHT22;1369;53.216;10.396;2024-02-21T14:38:20;11.50;99.90
2723;DHT22;1369;53.216;10.396;2024-02-21T14:40:45;11.40;99.90
2723;DHT22;1369;53.216;10.396;2024-02-21T14:43:11;11.40;99.90
2723;DHT22;1369;53.216;10.396;2024-02-21T14:45:37;11.30;99.90
2723;DHT22;1369;53.216;10.396;2024-02-21T14:48:06;11.40;99.90
2723;DHT22;1369;53.216;10.396;2024-02-21T14:50:32;11.40;99.90
2723;DHT22;1369;53.216;10.396;2024-02-21T14:52:58;11.30;99.90
2723;DHT22;1369;53.216;10.396;2024-02-21T14:55:23;11.30;99.90
2723;DHT22;1369;53.216;10.396;2024-02-21T14:57:50;11.20;99.90
2723;DHT22;1369;53.216;10.396;2024-02-21T15:00:16;11.20;99.90
2723;DHT22;1369;53.216;10.396;2024-02-21T15:02:42;11.20;99.90
2723;DHT22;1369;53.216;10.396;2024-02-21T15:05:08;11.10;99.90
2723;DHT22;1369;53.216;10.396;2024-02-21T15:07:34;11.10;99.90
2723;DHT22;1369;53.216;10.396;2024-02-21T15:10:00;11.10;99.90
2723;DHT22;1369;53.216;10.396;2024-02-21T15:12:26;11.00;99.90
2723;DHT22;1369;53.216;10.396;2024-02-21T15:14:52;11.00;99.90
2723;DHT22;1369;53.216;10.396;2024-02-21T15:17:18;11.00;99.90
2723;DHT22;1369;53.216;10.396;2024-02-21T15:19:44;10.90;99.90
2723;DHT22;1369;53.216;10.396;2024-02-21T15:22:13;10.90;99.90
2723;DHT22;1369;53.216;10.396;2024-02-21T15:24:40;10.90;99.90
2723;DHT22;1369;53.216;10.396;2024-02-21T15:27:06;10.80;99.90
2723;DHT22;1369;53.216;10.396;2024-02-21T15:29:33;10.80;99.90
2723;DHT22;1369;53.216;10.396;2024-02-21T15:32:00;10.80;99.90
2723;DHT22;1369;53.216;10.396;2024-02-21T15:34:26;10.70;99.90
2723;DHT22;1369;53.216;10.396;2024-02-21T15:36:53;10.70;99.90
2723;DHT22;1369;53.216;10.396;2024-02-21T15:39:18;10.70;99.90
2723;DHT22;1369;53.216;10.396;2024-02-21T15:41:44;10.60;99.90
2723;DHT22;1369;53.216;10.396;2024-02-21T15:44:09;10.60;99.90
2723;DHT22;1369;53.216;10.396;2024-02-21T15:46:35;10.50;99.90
2723;DHT22;1369;53.216;10.396;2024-02-21T15:49:02;10.40;99.90
2723;DHT22;1369;53.216;10.396;2024-02-21T15:51:28;10.40;99.90
2723;DHT22;1369;53.216;10.396;2024-02-21T15:53:58;10.40;99.90
2723;DHT22;1369;53.216;10.396;2024-02-21T15:56:24;10.30;99.90
2723;DHT22;1369;53.216;10.396;2024-02-21T15:58:50;10.30;99.90
2723;DHT22;1369;53.216;10.396;2024-02-21T16:01:15;10.20;99.90